sensor_id;sensor_type;location;lat;lon;timestamp;P1;durP1;ratioP1;P2;durP2;ratioP2
42770;SDS011;28426;42.872;25.314;2023-02-28T00:00:39;25.02;;;18.27;;
42770;SDS011;28426;42.872;25.314;2023-02-28T00:03:10;20.80;;;14.77;;
42770;SDS011;28426;42.872;25.314;2023-02-28T00:05:40;24.83;;;18.25;;
42770;SDS011;28426;42.872;25.314;2023-02-28T00:08:14;23.73;;;16.85;;
42770;SDS011;28426;42.872;25.314;2023-02-28T00:10:45;22.08;;;14.82;;
42770;SDS011;28426;42.872;25.314;2023-02-28T00:13:15;21.75;;;15.75;;
42770;SDS011;28426;42.872;25.314;2023-02-28T00:15:46;20.75;;;15.15;;
42770;SDS011;28426;42.872;25.314;2023-02-28T00:18:16;20.63;;;15.40;;
42770;SDS011;28426;42.872;25.314;2023-02-28T00:20:47;18.13;;;13.93;;
42770;SDS011;28426;42.872;25.314;2023-02-28T00:23:20;19.08;;;13.85;;
42770;SDS011;28426;42.872;25.314;2023-02-28T00:25:51;23.48;;;16.27;;
42770;SDS011;28426;42.872;25.314;2023-02-28T00:28:22;23.98;;;17.38;;
42770;SDS011;28426;42.872;25.314;2023-02-28T00:30:53;26.55;;;16.92;;
42770;SDS011;28426;42.872;25.314;2023-02-28T00:33:24;22.90;;;16.33;;
42770;SDS011;28426;42.872;25.314;2023-02-28T00:36:01;21.88;;;14.55;;
42770;SDS011;28426;42.872;25.314;2023-02-28T00:38:39;21.42;;;14.27;;
42770;SDS011;28426;42.872;25.314;2023-02-28T00:41:10;25.20;;;17.63;;
42770;SDS011;28426;42.872;25.314;2023-02-28T00:43:41;27.42;;;18.75;;
42770;SDS011;28426;42.872;25.314;2023-02-28T00:46:11;25.50;;;18.95;;
42770;SDS011;28426;42.872;25.314;2023-02-28T00:48:42;24.30;;;17.58;;
42770;SDS011;28426;42.872;25.314;2023-02-28T00:51:14;22.60;;;16.67;;
42770;SDS011;28426;42.872;25.314;2023-02-28T00:53:47;20.77;;;15.30;;
42770;SDS011;28426;42.872;25.314;2023-02-28T00:56:18;23.88;;;16.33;;
42770;SDS011;28426;42.872;25.314;2023-02-28T00:58:48;26.90;;;17.85;;
42770;SDS011;28426;42.872;25.314;2023-02-28T01:01:19;25.90;;;17.45;;
42770;SDS011;28426;42.872;25.314;2023-02-28T01:03:50;22.35;;;16.02;;
42770;SDS011;28426;42.872;25.314;2023-02-28T01:06:21;21.02;;;14.95;;
42770;SDS011;28426;42.872;25.314;2023-02-28T01:08:54;23.38;;;17.38;;
42770;SDS011;28426;42.872;25.314;2023-02-28T01:11:25;26.45;;;19.08;;
42770;SDS011;28426;42.872;25.314;2023-02-28T01:13:56;29.55;;;19.05;;
42770;SDS011;28426;42.872;25.314;2023-02-28T01:16:27;27.42;;;17.60;;
42770;SDS011;28426;42.872;25.314;2023-02-28T01:18:58;22.95;;;16.70;;
42770;SDS011;28426;42.872;25.314;2023-02-28T01:21:29;20.98;;;15.27;;
42770;SDS011;28426;42.872;25.314;2023-02-28T01:24:03;21.65;;;15.90;;
42770;SDS011;28426;42.872;25.314;2023-02-28T01:26:35;27.25;;;19.08;;
42770;SDS011;28426;42.872;25.314;2023-02-28T01:29:07;28.48;;;19.63;;
42770;SDS011;28426;42.872;25.314;2023-02-28T01:31:38;32.63;;;20.17;;
42770;SDS011;28426;42.872;25.314;2023-02-28T01:34:08;27.45;;;18.88;;
42770;SDS011;28426;42.872;25.314;2023-02-28T01:36:39;24.35;;;17.88;;
42770;SDS011;28426;42.872;25.314;2023-02-28T01:39:12;21.52;;;15.65;;
42770;SDS011;28426;42.872;25.314;2023-02-28T01:41:43;29.58;;;19.80;;
42770;SDS011;28426;42.872;25.314;2023-02-28T01:47:14;33.95;;;21.80;;
42770;SDS011;28426;42.872;25.314;2023-02-28T01:49:45;29.58;;;20.48;;
42770;SDS011;28426;42.872;25.314;2023-02-28T01:52:18;27.83;;;19.75;;
42770;SDS011;28426;42.872;25.314;2023-02-28T01:54:56;24.85;;;17.20;;
42770;SDS011;28426;42.872;25.314;2023-02-28T01:57:30;31.67;;;20.30;;
42770;SDS011;28426;42.872;25.314;2023-02-28T02:00:06;34.33;;;22.50;;
42770;SDS011;28426;42.872;25.314;2023-02-28T02:02:45;26.77;;;18.75;;
42770;SDS011;28426;42.872;25.314;2023-02-28T02:05:19;25.35;;;16.95;;
42770;SDS011;28426;42.872;25.314;2023-02-28T02:07:51;28.35;;;18.92;;
42770;SDS011;28426;42.872;25.314;2023-02-28T02:10:29;34.90;;;21.08;;
42770;SDS011;28426;42.872;25.314;2023-02-28T02:13:08;34.88;;;21.30;;
42770;SDS011;28426;42.872;25.314;2023-02-28T02:15:54;40.03;;;22.67;;
42770;SDS011;28426;42.872;25.314;2023-02-28T02:18:34;34.22;;;21.70;;
42770;SDS011;28426;42.872;25.314;2023-02-28T02:21:18;28.52;;;19.10;;
42770;SDS011;28426;42.872;25.314;2023-02-28T02:27:22;32.30;;;20.55;;
42770;SDS011;28426;42.872;25.314;2023-02-28T02:30:18;30.05;;;18.55;;
42770;SDS011;28426;42.872;25.314;2023-02-28T02:33:18;25.45;;;16.80;;
42770;SDS011;28426;42.872;25.314;2023-02-28T02:36:11;36.13;;;21.17;;
42770;SDS011;28426;42.872;25.314;2023-02-28T02:38:49;33.60;;;20.67;;
42770;SDS011;28426;42.872;25.314;2023-02-28T02:43:58;40.58;;;21.88;;
42770;SDS011;28426;42.872;25.314;2023-02-28T02:46:36;31.95;;;20.80;;
42770;SDS011;28426;42.872;25.314;2023-02-28T02:49:12;30.73;;;18.13;;
42770;SDS011;28426;42.872;25.314;2023-02-28T02:51:51;26.83;;;17.23;;
42770;SDS011;28426;42.872;25.314;2023-02-28T02:54:24;37.05;;;22.35;;
42770;SDS011;28426;42.872;25.314;2023-02-28T02:56:59;39.05;;;22.92;;
42770;SDS011;28426;42.872;25.314;2023-02-28T02:59:35;37.92;;;22.80;;
42770;SDS011;28426;42.872;25.314;2023-02-28T03:02:09;34.00;;;22.38;;
42770;SDS011;28426;42.872;25.314;2023-02-28T03:07:18;29.25;;;18.02;;
42770;SDS011;28426;42.872;25.314;2023-02-28T03:09:50;28.38;;;17.88;;
42770;SDS011;28426;42.872;25.314;2023-02-28T03:12:22;38.08;;;21.85;;
42770;SDS011;28426;42.872;25.314;2023-02-28T03:15:00;32.72;;;22.05;;
42770;SDS011;28426;42.872;25.314;2023-02-28T03:17:44;32.20;;;21.35;;
42770;SDS011;28426;42.872;25.314;2023-02-28T03:20:27;31.85;;;21.75;;
42770;SDS011;28426;42.872;25.314;2023-02-28T03:23:16;30.45;;;19.02;;
42770;SDS011;28426;42.872;25.314;2023-02-28T03:25:54;24.77;;;16.88;;
42770;SDS011;28426;42.872;25.314;2023-02-28T03:28:31;37.53;;;21.00;;
42770;SDS011;28426;42.872;25.314;2023-02-28T03:31:07;32.33;;;21.30;;
42770;SDS011;28426;42.872;25.314;2023-02-28T03:36:22;34.92;;;21.50;;
42770;SDS011;28426;42.872;25.314;2023-02-28T03:39:01;33.65;;;21.83;;
42770;SDS011;28426;42.872;25.314;2023-02-28T03:41:36;31.55;;;20.65;;
42770;SDS011;28426;42.872;25.314;2023-02-28T03:44:14;25.40;;;18.42;;
42770;SDS011;28426;42.872;25.314;2023-02-28T03:46:48;35.13;;;19.38;;
42770;SDS011;28426;42.872;25.314;2023-02-28T03:49:24;38.08;;;22.73;;
42770;SDS011;28426;42.872;25.314;2023-02-28T03:52:01;34.65;;;22.25;;
42770;SDS011;28426;42.872;25.314;2023-02-28T03:54:38;42.70;;;24.48;;
42770;SDS011;28426;42.872;25.314;2023-02-28T03:57:15;39.70;;;23.80;;
42770;SDS011;28426;42.872;25.314;2023-02-28T03:59:54;32.22;;;20.17;;
42770;SDS011;28426;42.872;25.314;2023-02-28T04:02:38;28.98;;;19.77;;
42770;SDS011;28426;42.872;25.314;2023-02-28T04:05:09;33.10;;;21.55;;
42770;SDS011;28426;42.872;25.314;2023-02-28T04:07:40;40.72;;;23.90;;
42770;SDS011;28426;42.872;25.314;2023-02-28T04:10:13;42.35;;;25.63;;
42770;SDS011;28426;42.872;25.314;2023-02-28T04:12:45;44.35;;;26.20;;
42770;SDS011;28426;42.872;25.314;2023-02-28T04:15:15;40.65;;;24.10;;
42770;SDS011;28426;42.872;25.314;2023-02-28T04:17:49;36.88;;;21.95;;
42770;SDS011;28426;42.872;25.314;2023-02-28T04:20:20;34.20;;;20.60;;
42770;SDS011;28426;42.872;25.314;2023-02-28T04:22:50;48.42;;;25.88;;
42770;SDS011;28426;42.872;25.314;2023-02-28T04:25:23;41.63;;;24.88;;
42770;SDS011;28426;42.872;25.314;2023-02-28T04:27:54;47.30;;;25.52;;
42770;SDS011;28426;42.872;25.314;2023-02-28T04:30:24;43.45;;;26.05;;
42770;SDS011;28426;42.872;25.314;2023-02-28T04:32:56;40.05;;;23.60;;
42770;SDS011;28426;42.872;25.314;2023-02-28T04:35:26;34.60;;;21.20;;
42770;SDS011;28426;42.872;25.314;2023-02-28T04:37:57;33.90;;;20.15;;
42770;SDS011;28426;42.872;25.314;2023-02-28T04:40:30;39.47;;;23.15;;
42770;SDS011;28426;42.872;25.314;2023-02-28T04:43:01;40.28;;;23.45;;
42770;SDS011;28426;42.872;25.314;2023-02-28T04:45:32;33.20;;;20.13;;
42770;SDS011;28426;42.872;25.314;2023-02-28T04:48:02;32.33;;;18.75;;
42770;SDS011;28426;42.872;25.314;2023-02-28T04:50:33;37.88;;;23.77;;
42770;SDS011;28426;42.872;25.314;2023-02-28T04:53:04;42.55;;;24.73;;
42770;SDS011;28426;42.872;25.314;2023-02-28T04:55:37;34.72;;;20.65;;
42770;SDS011;28426;42.872;25.314;2023-02-28T04:58:08;34.63;;;19.77;;
42770;SDS011;28426;42.872;25.314;2023-02-28T05:00:38;45.70;;;24.90;;
42770;SDS011;28426;42.872;25.314;2023-02-28T05:03:09;39.97;;;24.08;;
42770;SDS011;28426;42.872;25.314;2023-02-28T05:05:40;37.20;;;23.48;;
42770;SDS011;28426;42.872;25.314;2023-02-28T05:08:11;45.15;;;25.67;;
42770;SDS011;28426;42.872;25.314;2023-02-28T05:10:44;38.50;;;23.02;;
42770;SDS011;28426;42.872;25.314;2023-02-28T05:13:15;33.90;;;21.80;;
42770;SDS011;28426;42.872;25.314;2023-02-28T05:15:45;35.40;;;21.52;;
42770;SDS011;28426;42.872;25.314;2023-02-28T05:18:17;39.97;;;23.52;;
42770;SDS011;28426;42.872;25.314;2023-02-28T05:20:47;35.85;;;23.25;;
42770;SDS011;28426;42.872;25.314;2023-02-28T05:23:18;41.47;;;24.15;;
42770;SDS011;28426;42.872;25.314;2023-02-28T05:25:54;38.22;;;23.23;;
42770;SDS011;28426;42.872;25.314;2023-02-28T05:28:25;43.35;;;25.05;;
42770;SDS011;28426;42.872;25.314;2023-02-28T05:30:56;34.38;;;22.35;;
42770;SDS011;28426;42.872;25.314;2023-02-28T05:33:27;34.20;;;21.80;;
42770;SDS011;28426;42.872;25.314;2023-02-28T05:35:57;34.65;;;21.08;;
42770;SDS011;28426;42.872;25.314;2023-02-28T05:38:28;35.70;;;21.30;;
42770;SDS011;28426;42.872;25.314;2023-02-28T05:41:04;35.80;;;22.65;;
42770;SDS011;28426;42.872;25.314;2023-02-28T05:43:36;36.45;;;22.00;;
42770;SDS011;28426;42.872;25.314;2023-02-28T05:46:07;39.85;;;22.50;;
42770;SDS011;28426;42.872;25.314;2023-02-28T05:48:40;31.27;;;20.42;;
42770;SDS011;28426;42.872;25.314;2023-02-28T05:51:11;28.90;;;19.92;;
42770;SDS011;28426;42.872;25.314;2023-02-28T05:53:42;35.47;;;21.70;;
42770;SDS011;28426;42.872;25.314;2023-02-28T05:56:15;31.67;;;20.08;;
42770;SDS011;28426;42.872;25.314;2023-02-28T05:58:46;31.95;;;20.40;;
42770;SDS011;28426;42.872;25.314;2023-02-28T06:01:20;29.33;;;20.20;;
42770;SDS011;28426;42.872;25.314;2023-02-28T06:03:56;29.63;;;19.83;;
42770;SDS011;28426;42.872;25.314;2023-02-28T06:06:28;27.38;;;18.60;;
42770;SDS011;28426;42.872;25.314;2023-02-28T06:09:03;30.50;;;18.98;;
42770;SDS011;28426;42.872;25.314;2023-02-28T06:11:37;28.88;;;18.50;;
42770;SDS011;28426;42.872;25.314;2023-02-28T06:14:09;28.95;;;19.13;;
42770;SDS011;28426;42.872;25.314;2023-02-28T06:16:44;33.53;;;20.27;;
42770;SDS011;28426;42.872;25.314;2023-02-28T06:19:16;33.60;;;21.38;;
42770;SDS011;28426;42.872;25.314;2023-02-28T06:21:47;32.63;;;20.65;;
42770;SDS011;28426;42.872;25.314;2023-02-28T06:24:19;34.20;;;20.98;;
42770;SDS011;28426;42.872;25.314;2023-02-28T06:26:53;32.78;;;20.75;;
42770;SDS011;28426;42.872;25.314;2023-02-28T06:29:24;39.20;;;22.33;;
42770;SDS011;28426;42.872;25.314;2023-02-28T06:31:55;34.95;;;23.08;;
42770;SDS011;28426;42.872;25.314;2023-02-28T06:34:25;32.65;;;21.45;;
42770;SDS011;28426;42.872;25.314;2023-02-28T06:36:56;38.92;;;23.77;;
42770;SDS011;28426;42.872;25.314;2023-02-28T06:39:29;32.72;;;21.38;;
42770;SDS011;28426;42.872;25.314;2023-02-28T06:42:02;35.28;;;21.20;;
42770;SDS011;28426;42.872;25.314;2023-02-28T06:44:33;38.58;;;20.13;;
42770;SDS011;28426;42.872;25.314;2023-02-28T06:47:06;38.85;;;21.95;;
42770;SDS011;28426;42.872;25.314;2023-02-28T06:49:37;32.30;;;19.10;;
42770;SDS011;28426;42.872;25.314;2023-02-28T06:52:07;28.92;;;18.70;;
42770;SDS011;28426;42.872;25.314;2023-02-28T06:54:38;34.47;;;19.80;;
42770;SDS011;28426;42.872;25.314;2023-02-28T06:57:11;29.90;;;19.77;;
42770;SDS011;28426;42.872;25.314;2023-02-28T06:59:42;30.98;;;19.83;;
42770;SDS011;28426;42.872;25.314;2023-02-28T07:02:12;33.55;;;21.13;;
42770;SDS011;28426;42.872;25.314;2023-02-28T07:04:43;32.08;;;20.88;;
42770;SDS011;28426;42.872;25.314;2023-02-28T07:07:14;29.83;;;19.60;;
42770;SDS011;28426;42.872;25.314;2023-02-28T07:09:45;27.48;;;18.52;;
42770;SDS011;28426;42.872;25.314;2023-02-28T07:12:18;30.25;;;20.05;;
42770;SDS011;28426;42.872;25.314;2023-02-28T07:14:49;28.42;;;19.42;;
42770;SDS011;28426;42.872;25.314;2023-02-28T07:17:19;30.25;;;19.42;;
42770;SDS011;28426;42.872;25.314;2023-02-28T07:19:50;34.30;;;20.80;;
42770;SDS011;28426;42.872;25.314;2023-02-28T07:22:20;31.15;;;19.63;;
42770;SDS011;28426;42.872;25.314;2023-02-28T07:24:52;30.73;;;20.40;;
42770;SDS011;28426;42.872;25.314;2023-02-28T07:27:25;33.92;;;21.35;;
42770;SDS011;28426;42.872;25.314;2023-02-28T07:29:55;31.42;;;20.83;;
42770;SDS011;28426;42.872;25.314;2023-02-28T07:32:29;33.25;;;21.73;;
42770;SDS011;28426;42.872;25.314;2023-02-28T07:35:00;39.42;;;22.35;;
42770;SDS011;28426;42.872;25.314;2023-02-28T07:37:30;38.45;;;23.20;;
42770;SDS011;28426;42.872;25.314;2023-02-28T07:40:03;40.05;;;23.50;;
42770;SDS011;28426;42.872;25.314;2023-02-28T07:42:39;46.22;;;24.05;;
42770;SDS011;28426;42.872;25.314;2023-02-28T07:45:15;49.67;;;23.73;;
42770;SDS011;28426;42.872;25.314;2023-02-28T07:47:46;63.28;;;25.58;;
42770;SDS011;28426;42.872;25.314;2023-02-28T07:50:17;50.50;;;22.77;;
42770;SDS011;28426;42.872;25.314;2023-02-28T07:52:48;56.38;;;24.77;;
42770;SDS011;28426;42.872;25.314;2023-02-28T07:55:18;51.35;;;25.90;;
42770;SDS011;28426;42.872;25.314;2023-02-28T07:57:51;40.28;;;23.80;;
42770;SDS011;28426;42.872;25.314;2023-02-28T08:00:22;45.05;;;22.23;;
42770;SDS011;28426;42.872;25.314;2023-02-28T08:02:53;49.17;;;25.75;;
42770;SDS011;28426;42.872;25.314;2023-02-28T08:05:24;54.67;;;26.75;;
42770;SDS011;28426;42.872;25.314;2023-02-28T08:07:55;54.42;;;29.88;;
42770;SDS011;28426;42.872;25.314;2023-02-28T08:10:25;48.20;;;25.90;;
42770;SDS011;28426;42.872;25.314;2023-02-28T08:12:58;43.15;;;26.63;;
42770;SDS011;28426;42.872;25.314;2023-02-28T08:15:29;48.08;;;28.27;;
42770;SDS011;28426;42.872;25.314;2023-02-28T08:17:59;43.55;;;27.65;;
42770;SDS011;28426;42.872;25.314;2023-02-28T08:20:30;53.80;;;29.58;;
42770;SDS011;28426;42.872;25.314;2023-02-28T08:23:01;60.65;;;32.30;;
42770;SDS011;28426;42.872;25.314;2023-02-28T08:25:32;56.03;;;30.63;;
42770;SDS011;28426;42.872;25.314;2023-02-28T08:28:05;92.85;;;33.30;;
42770;SDS011;28426;42.872;25.314;2023-02-28T08:30:35;78.82;;;33.83;;
42770;SDS011;28426;42.872;25.314;2023-02-28T08:33:07;75.57;;;33.03;;
42770;SDS011;28426;42.872;25.314;2023-02-28T08:35:38;65.75;;;30.77;;
42770;SDS011;28426;42.872;25.314;2023-02-28T08:38:09;60.15;;;29.15;;
42770;SDS011;28426;42.872;25.314;2023-02-28T08:40:39;68.45;;;33.70;;
42770;SDS011;28426;42.872;25.314;2023-02-28T08:43:12;70.63;;;31.60;;
42770;SDS011;28426;42.872;25.314;2023-02-28T08:45:43;63.35;;;29.55;;
42770;SDS011;28426;42.872;25.314;2023-02-28T08:48:14;47.03;;;24.25;;
42770;SDS011;28426;42.872;25.314;2023-02-28T08:50:54;37.03;;;20.98;;
42770;SDS011;28426;42.872;25.314;2023-02-28T08:53:33;38.17;;;20.17;;
42770;SDS011;28426;42.872;25.314;2023-02-28T08:56:05;33.08;;;17.65;;
42770;SDS011;28426;42.872;25.314;2023-02-28T08:58:39;30.05;;;16.77;;
42770;SDS011;28426;42.872;25.314;2023-02-28T09:01:11;33.80;;;18.02;;
42770;SDS011;28426;42.872;25.314;2023-02-28T09:03:44;34.55;;;19.15;;
42770;SDS011;28426;42.872;25.314;2023-02-28T09:06:17;24.83;;;16.08;;
42770;SDS011;28426;42.872;25.314;2023-02-28T09:08:48;31.75;;;18.05;;
42770;SDS011;28426;42.872;25.314;2023-02-28T09:11:19;32.13;;;16.77;;
42770;SDS011;28426;42.872;25.314;2023-02-28T09:13:52;28.08;;;16.50;;
42770;SDS011;28426;42.872;25.314;2023-02-28T09:16:24;33.72;;;18.20;;
42770;SDS011;28426;42.872;25.314;2023-02-28T09:18:54;33.42;;;18.95;;
42770;SDS011;28426;42.872;25.314;2023-02-28T09:21:25;33.50;;;17.33;;
42770;SDS011;28426;42.872;25.314;2023-02-28T09:23:56;32.90;;;18.25;;
42770;SDS011;28426;42.872;25.314;2023-02-28T09:26:27;31.67;;;17.90;;
42770;SDS011;28426;42.872;25.314;2023-02-28T09:29:11;32.42;;;18.90;;
42770;SDS011;28426;42.872;25.314;2023-02-28T09:31:43;33.67;;;19.83;;
42770;SDS011;28426;42.872;25.314;2023-02-28T09:34:14;31.50;;;17.70;;
42770;SDS011;28426;42.872;25.314;2023-02-28T09:36:45;43.00;;;19.25;;
42770;SDS011;28426;42.872;25.314;2023-02-28T09:39:16;35.25;;;17.08;;
42770;SDS011;28426;42.872;25.314;2023-02-28T09:41:47;32.80;;;17.30;;
42770;SDS011;28426;42.872;25.314;2023-02-28T09:44:25;29.02;;;16.63;;
42770;SDS011;28426;42.872;25.314;2023-02-28T09:47:00;28.30;;;17.27;;
42770;SDS011;28426;42.872;25.314;2023-02-28T09:49:37;27.10;;;16.77;;
42770;SDS011;28426;42.872;25.314;2023-02-28T09:54:43;22.05;;;14.15;;
42770;SDS011;28426;42.872;25.314;2023-02-28T09:57:16;26.23;;;14.77;;
42770;SDS011;28426;42.872;25.314;2023-02-28T09:59:57;22.60;;;13.70;;
42770;SDS011;28426;42.872;25.314;2023-02-28T10:02:49;19.92;;;13.15;;
42770;SDS011;28426;42.872;25.314;2023-02-28T10:05:31;18.38;;;11.68;;
42770;SDS011;28426;42.872;25.314;2023-02-28T10:08:09;17.67;;;11.32;;
42770;SDS011;28426;42.872;25.314;2023-02-28T10:10:44;17.52;;;10.98;;
42770;SDS011;28426;42.872;25.314;2023-02-28T10:13:21;18.00;;;11.30;;
42770;SDS011;28426;42.872;25.314;2023-02-28T10:16:00;17.67;;;11.95;;
42770;SDS011;28426;42.872;25.314;2023-02-28T10:18:38;20.13;;;11.80;;
42770;SDS011;28426;42.872;25.314;2023-02-28T10:21:16;18.95;;;11.48;;
42770;SDS011;28426;42.872;25.314;2023-02-28T10:27:15;17.02;;;10.88;;
42770;SDS011;28426;42.872;25.314;2023-02-28T10:29:47;17.38;;;10.70;;
42770;SDS011;28426;42.872;25.314;2023-02-28T10:32:23;16.80;;;10.73;;
42770;SDS011;28426;42.872;25.314;2023-02-28T10:34:57;16.88;;;11.05;;
42770;SDS011;28426;42.872;25.314;2023-02-28T10:37:32;15.70;;;10.10;;
42770;SDS011;28426;42.872;25.314;2023-02-28T10:40:06;18.25;;;11.73;;
42770;SDS011;28426;42.872;25.314;2023-02-28T10:42:54;18.80;;;12.55;;
42770;SDS011;28426;42.872;25.314;2023-02-28T10:45:26;18.95;;;11.60;;
42770;SDS011;28426;42.872;25.314;2023-02-28T10:48:03;15.05;;;10.18;;
42770;SDS011;28426;42.872;25.314;2023-02-28T10:53:14;16.67;;;10.57;;
42770;SDS011;28426;42.872;25.314;2023-02-28T10:55:56;17.60;;;10.35;;
42770;SDS011;28426;42.872;25.314;2023-02-28T10:58:28;17.30;;;10.23;;
42770;SDS011;28426;42.872;25.314;2023-02-28T11:01:00;15.10;;;9.68;;
42770;SDS011;28426;42.872;25.314;2023-02-28T11:03:34;17.17;;;9.90;;
42770;SDS011;28426;42.872;25.314;2023-02-28T11:06:06;16.55;;;10.77;;
42770;SDS011;28426;42.872;25.314;2023-02-28T11:08:45;17.73;;;9.55;;
42770;SDS011;28426;42.872;25.314;2023-02-28T11:11:19;14.63;;;9.77;;
42770;SDS011;28426;42.872;25.314;2023-02-28T11:13:53;15.95;;;9.93;;
42770;SDS011;28426;42.872;25.314;2023-02-28T11:16:31;14.73;;;9.32;;
42770;SDS011;28426;42.872;25.314;2023-02-28T11:19:06;13.63;;;8.85;;
42770;SDS011;28426;42.872;25.314;2023-02-28T11:21:52;16.10;;;9.60;;
42770;SDS011;28426;42.872;25.314;2023-02-28T11:24:26;17.33;;;10.30;;
42770;SDS011;28426;42.872;25.314;2023-02-28T11:26:59;13.65;;;9.40;;
42770;SDS011;28426;42.872;25.314;2023-02-28T11:29:30;15.38;;;9.98;;
42770;SDS011;28426;42.872;25.314;2023-02-28T11:32:04;17.98;;;9.93;;
42770;SDS011;28426;42.872;25.314;2023-02-28T11:34:44;14.50;;;9.50;;
42770;SDS011;28426;42.872;25.314;2023-02-28T11:37:16;12.97;;;8.57;;
42770;SDS011;28426;42.872;25.314;2023-02-28T11:39:49;14.35;;;9.15;;
42770;SDS011;28426;42.872;25.314;2023-02-28T11:42:32;12.35;;;7.78;;
42770;SDS011;28426;42.872;25.314;2023-02-28T11:45:28;13.32;;;7.80;;
42770;SDS011;28426;42.872;25.314;2023-02-28T11:48:20;12.43;;;8.02;;
42770;SDS011;28426;42.872;25.314;2023-02-28T11:51:01;10.40;;;7.05;;
42770;SDS011;28426;42.872;25.314;2023-02-28T11:53:51;12.43;;;7.80;;
42770;SDS011;28426;42.872;25.314;2023-02-28T11:56:48;12.98;;;7.88;;
42770;SDS011;28426;42.872;25.314;2023-02-28T11:59:35;12.02;;;7.53;;
42770;SDS011;28426;42.872;25.314;2023-02-28T12:02:20;10.82;;;6.32;;
42770;SDS011;28426;42.872;25.314;2023-02-28T12:08:03;10.00;;;6.50;;
42770;SDS011;28426;42.872;25.314;2023-02-28T12:10:50;10.93;;;6.38;;
42770;SDS011;28426;42.872;25.314;2023-02-28T12:13:29;8.77;;;5.93;;
42770;SDS011;28426;42.872;25.314;2023-02-28T12:19:01;8.38;;;6.10;;
42770;SDS011;28426;42.872;25.314;2023-02-28T12:21:44;10.57;;;6.53;;
42770;SDS011;28426;42.872;25.314;2023-02-28T12:24:35;10.88;;;6.90;;
42770;SDS011;28426;42.872;25.314;2023-02-28T12:27:18;11.68;;;7.10;;
42770;SDS011;28426;42.872;25.314;2023-02-28T12:29:54;9.10;;;6.13;;
42770;SDS011;28426;42.872;25.314;2023-02-28T12:32:30;9.20;;;5.90;;
42770;SDS011;28426;42.872;25.314;2023-02-28T12:35:05;13.45;;;8.05;;
42770;SDS011;28426;42.872;25.314;2023-02-28T12:37:43;12.02;;;8.00;;
42770;SDS011;28426;42.872;25.314;2023-02-28T12:40:20;16.93;;;8.67;;
42770;SDS011;28426;42.872;25.314;2023-02-28T12:42:53;11.70;;;7.15;;
42770;SDS011;28426;42.872;25.314;2023-02-28T12:45:31;9.32;;;6.22;;
42770;SDS011;28426;42.872;25.314;2023-02-28T12:48:10;17.08;;;7.32;;
42770;SDS011;28426;42.872;25.314;2023-02-28T12:50:47;13.65;;;7.47;;
42770;SDS011;28426;42.872;25.314;2023-02-28T12:53:21;13.55;;;7.20;;
42770;SDS011;28426;42.872;25.314;2023-02-28T12:56:02;12.32;;;7.78;;
42770;SDS011;28426;42.872;25.314;2023-02-28T12:58:43;10.88;;;6.60;;
42770;SDS011;28426;42.872;25.314;2023-02-28T13:04:32;11.00;;;6.57;;
42770;SDS011;28426;42.872;25.314;2023-02-28T13:07:20;12.73;;;6.95;;
42770;SDS011;28426;42.872;25.314;2023-02-28T13:10:13;14.98;;;8.65;;
42770;SDS011;28426;42.872;25.314;2023-02-28T13:12:51;12.32;;;7.97;;
42770;SDS011;28426;42.872;25.314;2023-02-28T13:15:25;12.90;;;7.93;;
42770;SDS011;28426;42.872;25.314;2023-02-28T13:17:58;16.30;;;8.68;;
42770;SDS011;28426;42.872;25.314;2023-02-28T13:20:29;14.35;;;9.23;;
42770;SDS011;28426;42.872;25.314;2023-02-28T13:23:04;17.65;;;10.63;;
42770;SDS011;28426;42.872;25.314;2023-02-28T13:26:07;13.43;;;8.52;;
42770;SDS011;28426;42.872;25.314;2023-02-28T13:32:19;17.15;;;9.82;;
42770;SDS011;28426;42.872;25.314;2023-02-28T13:35:13;16.40;;;8.48;;
42770;SDS011;28426;42.872;25.314;2023-02-28T13:38:21;14.50;;;8.20;;
42770;SDS011;28426;42.872;25.314;2023-02-28T13:44:06;12.70;;;6.97;;
42770;SDS011;28426;42.872;25.314;2023-02-28T13:49:47;14.93;;;10.27;;
42770;SDS011;28426;42.872;25.314;2023-02-28T13:52:20;15.18;;;9.88;;
42770;SDS011;28426;42.872;25.314;2023-02-28T13:57:58;15.10;;;10.40;;
42770;SDS011;28426;42.872;25.314;2023-02-28T14:00:43;12.70;;;8.68;;
42770;SDS011;28426;42.872;25.314;2023-02-28T14:03:34;15.63;;;9.13;;
42770;SDS011;28426;42.872;25.314;2023-02-28T14:06:25;14.32;;;10.02;;
42770;SDS011;28426;42.872;25.314;2023-02-28T14:09:00;16.83;;;11.02;;
42770;SDS011;28426;42.872;25.314;2023-02-28T14:11:35;15.18;;;10.63;;
42770;SDS011;28426;42.872;25.314;2023-02-28T14:14:08;17.90;;;11.50;;
42770;SDS011;28426;42.872;25.314;2023-02-28T14:16:59;18.77;;;13.50;;
42770;SDS011;28426;42.872;25.314;2023-02-28T14:19:34;15.05;;;10.13;;
42770;SDS011;28426;42.872;25.314;2023-02-28T14:22:09;19.90;;;9.50;;
42770;SDS011;28426;42.872;25.314;2023-02-28T14:24:59;20.50;;;10.95;;
42770;SDS011;28426;42.872;25.314;2023-02-28T14:27:42;22.60;;;12.30;;
42770;SDS011;28426;42.872;25.314;2023-02-28T14:30:24;13.77;;;8.57;;
42770;SDS011;28426;42.872;25.314;2023-02-28T14:33:16;16.40;;;9.68;;
42770;SDS011;28426;42.872;25.314;2023-02-28T14:36:03;13.43;;;8.15;;
42770;SDS011;28426;42.872;25.314;2023-02-28T14:38:38;15.50;;;9.07;;
42770;SDS011;28426;42.872;25.314;2023-02-28T14:41:14;13.20;;;8.50;;
42770;SDS011;28426;42.872;25.314;2023-02-28T14:43:53;13.57;;;9.25;;
42770;SDS011;28426;42.872;25.314;2023-02-28T14:46:26;17.75;;;11.85;;
42770;SDS011;28426;42.872;25.314;2023-02-28T14:49:00;9.73;;;6.82;;
42770;SDS011;28426;42.872;25.314;2023-02-28T14:51:33;14.30;;;8.82;;
42770;SDS011;28426;42.872;25.314;2023-02-28T14:54:05;11.98;;;8.25;;
42770;SDS011;28426;42.872;25.314;2023-02-28T14:56:36;12.63;;;7.18;;
42770;SDS011;28426;42.872;25.314;2023-02-28T14:59:21;12.80;;;7.05;;
42770;SDS011;28426;42.872;25.314;2023-02-28T15:04:54;16.30;;;9.90;;
42770;SDS011;28426;42.872;25.314;2023-02-28T15:07:31;11.25;;;6.97;;
42770;SDS011;28426;42.872;25.314;2023-02-28T15:10:08;9.95;;;5.13;;
42770;SDS011;28426;42.872;25.314;2023-02-28T15:12:41;13.55;;;8.77;;
42770;SDS011;28426;42.872;25.314;2023-02-28T15:15:20;9.18;;;6.03;;
42770;SDS011;28426;42.872;25.314;2023-02-28T15:18:06;17.05;;;10.50;;
42770;SDS011;28426;42.872;25.314;2023-02-28T15:20:42;21.50;;;13.63;;
42770;SDS011;28426;42.872;25.314;2023-02-28T15:23:16;15.40;;;9.43;;
42770;SDS011;28426;42.872;25.314;2023-02-28T15:25:49;14.27;;;9.00;;
42770;SDS011;28426;42.872;25.314;2023-02-28T15:28:22;10.00;;;5.20;;
42770;SDS011;28426;42.872;25.314;2023-02-28T15:30:55;11.55;;;7.47;;
42770;SDS011;28426;42.872;25.314;2023-02-28T15:33:28;12.02;;;8.13;;
42770;SDS011;28426;42.872;25.314;2023-02-28T15:36:04;11.43;;;7.30;;
42770;SDS011;28426;42.872;25.314;2023-02-28T15:38:38;12.80;;;8.27;;
42770;SDS011;28426;42.872;25.314;2023-02-28T15:41:20;10.93;;;6.25;;
42770;SDS011;28426;42.872;25.314;2023-02-28T15:46:53;8.60;;;5.22;;